sensor_id;sensor_type;location;lat;lon;timestamp;P1;durP1;ratioP1;P2;durP2;ratioP2
63690;SDS011;49837;57.280;27.070;2023-07-29T00:00:46;6.6;;;2.3;;
63690;SDS011;49837;57.280;27.070;2023-07-29T00:01:47;5.3;;;2.1;;
63690;SDS011;49837;57.280;27.070;2023-07-29T00:02:47;6.1;;;2.2;;
63690;SDS011;49837;57.280;27.070;2023-07-29T00:03:48;5.0;;;1.9;;
63690;SDS011;49837;57.280;27.070;2023-07-29T00:04:48;4.9;;;2.3;;
63690;SDS011;49837;57.280;27.070;2023-07-29T00:05:48;6.6;;;2.3;;
63690;SDS011;49837;57.280;27.070;2023-07-29T00:06:49;5.8;;;2.2;;
63690;SDS011;49837;57.280;27.070;2023-07-29T00:07:49;4.4;;;2.2;;
63690;SDS011;49837;57.280;27.070;2023-07-29T00:08:50;6.0;;;2.1;;
63690;SDS011;49837;57.280;27.070;2023-07-29T00:09:50;5.9;;;2.2;;
63690;SDS011;49837;57.280;27.070;2023-07-29T00:10:51;3.7;;;2.0;;
63690;SDS011;49837;57.280;27.070;2023-07-29T00:11:51;3.7;;;2.2;;
63690;SDS011;49837;57.280;27.070;2023-07-29T00:12:51;3.6;;;2.0;;
63690;SDS011;49837;57.280;27.070;2023-07-29T00:13:52;3.6;;;2.2;;
63690;SDS011;49837;57.280;27.070;2023-07-29T00:14:52;3.6;;;2.1;;
63690;SDS011;49837;57.280;27.070;2023-07-29T00:15:53;6.8;;;2.0;;
63690;SDS011;49837;57.280;27.070;2023-07-29T00:16:53;4.4;;;2.6;;
63690;SDS011;49837;57.280;27.070;2023-07-29T00:17:54;4.0;;;2.0;;
63690;SDS011;49837;57.280;27.070;2023-07-29T00:18:54;4.1;;;2.1;;
63690;SDS011;49837;57.280;27.070;2023-07-29T00:19:54;4.7;;;2.3;;
63690;SDS011;49837;57.280;27.070;2023-07-29T00:20:55;3.0;;;2.0;;
63690;SDS011;49837;57.280;27.070;2023-07-29T00:21:55;5.1;;;2.4;;
63690;SDS011;49837;57.280;27.070;2023-07-29T00:22:56;4.6;;;2.4;;
63690;SDS011;49837;57.280;27.070;2023-07-29T00:23:57;6.7;;;2.4;;
63690;SDS011;49837;57.280;27.070;2023-07-29T00:24:57;4.2;;;2.0;;
63690;SDS011;49837;57.280;27.070;2023-07-29T00:25:58;3.4;;;2.3;;
63690;SDS011;49837;57.280;27.070;2023-07-29T00:26:58;4.1;;;2.1;;
63690;SDS011;49837;57.280;27.070;2023-07-29T00:27:59;4.1;;;2.1;;
63690;SDS011;49837;57.280;27.070;2023-07-29T00:28:59;5.4;;;2.3;;
63690;SDS011;49837;57.280;27.070;2023-07-29T00:29:59;4.0;;;2.2;;
63690;SDS011;49837;57.280;27.070;2023-07-29T00:31:01;4.9;;;2.1;;
63690;SDS011;49837;57.280;27.070;2023-07-29T00:32:00;4.7;;;2.3;;
63690;SDS011;49837;57.280;27.070;2023-07-29T00:33:01;6.4;;;2.3;;
63690;SDS011;49837;57.280;27.070;2023-07-29T00:34:01;3.8;;;2.1;;
63690;SDS011;49837;57.280;27.070;2023-07-29T00:35:02;5.2;;;2.4;;
63690;SDS011;49837;57.280;27.070;2023-07-29T00:36:02;5.2;;;2.2;;
63690;SDS011;49837;57.280;27.070;2023-07-29T00:37:03;7.6;;;2.3;;
63690;SDS011;49837;57.280;27.070;2023-07-29T00:38:03;3.8;;;2.1;;
63690;SDS011;49837;57.280;27.070;2023-07-29T00:39:03;4.3;;;2.4;;
63690;SDS011;49837;57.280;27.070;2023-07-29T00:40:09;5.0;;;2.5;;
63690;SDS011;49837;57.280;27.070;2023-07-29T00:41:05;5.2;;;2.4;;
63690;SDS011;49837;57.280;27.070;2023-07-29T00:42:05;4.2;;;2.2;;
63690;SDS011;49837;57.280;27.070;2023-07-29T00:43:05;4.2;;;2.3;;
63690;SDS011;49837;57.280;27.070;2023-07-29T00:44:06;4.5;;;2.4;;
63690;SDS011;49837;57.280;27.070;2023-07-29T00:45:06;8.7;;;2.4;;
63690;SDS011;49837;57.280;27.070;2023-07-29T00:46:07;5.7;;;2.5;;
63690;SDS011;49837;57.280;27.070;2023-07-29T00:47:07;3.7;;;2.2;;
63690;SDS011;49837;57.280;27.070;2023-07-29T00:48:07;5.6;;;2.4;;
63690;SDS011;49837;57.280;27.070;2023-07-29T00:49:08;6.1;;;2.5;;
63690;SDS011;49837;57.280;27.070;2023-07-29T00:50:11;5.4;;;2.7;;
63690;SDS011;49837;57.280;27.070;2023-07-29T00:51:10;6.2;;;2.2;;
63690;SDS011;49837;57.280;27.070;2023-07-29T00:52:11;7.5;;;2.4;;
63690;SDS011;49837;57.280;27.070;2023-07-29T00:53:11;3.0;;;2.1;;
63690;SDS011;49837;57.280;27.070;2023-07-29T00:54:12;5.2;;;2.5;;
63690;SDS011;49837;57.280;27.070;2023-07-29T00:55:12;4.1;;;2.1;;
63690;SDS011;49837;57.280;27.070;2023-07-29T00:56:13;3.3;;;2.2;;
63690;SDS011;49837;57.280;27.070;2023-07-29T00:57:13;5.8;;;2.6;;
63690;SDS011;49837;57.280;27.070;2023-07-29T00:58:13;2.7;;;2.1;;
63690;SDS011;49837;57.280;27.070;2023-07-29T00:59:14;4.4;;;2.4;;
63690;SDS011;49837;57.280;27.070;2023-07-29T01:00:15;5.0;;;2.3;;
63690;SDS011;49837;57.280;27.070;2023-07-29T01:01:15;5.2;;;2.9;;
63690;SDS011;49837;57.280;27.070;2023-07-29T01:02:15;7.7;;;3.4;;
63690;SDS011;49837;57.280;27.070;2023-07-29T01:03:16;6.1;;;3.4;;
63690;SDS011;49837;57.280;27.070;2023-07-29T01:04:16;6.2;;;2.7;;
63690;SDS011;49837;57.280;27.070;2023-07-29T01:05:16;6.3;;;3.2;;
63690;SDS011;49837;57.280;27.070;2023-07-29T01:07:28;5.2;;;3.1;;
63690;SDS011;49837;57.280;27.070;2023-07-29T01:08:25;7.3;;;3.0;;
63690;SDS011;49837;57.280;27.070;2023-07-29T01:09:30;4.5;;;2.6;;
63690;SDS011;49837;57.280;27.070;2023-07-29T01:10:51;5.3;;;2.7;;
63690;SDS011;49837;57.280;27.070;2023-07-29T01:11:52;7.5;;;2.8;;
63690;SDS011;49837;57.280;27.070;2023-07-29T01:12:54;4.6;;;2.6;;
63690;SDS011;49837;57.280;27.070;2023-07-29T01:13:42;3.2;;;2.3;;
63690;SDS011;49837;57.280;27.070;2023-07-29T01:14:51;4.6;;;2.3;;
63690;SDS011;49837;57.280;27.070;2023-07-29T01:15:48;5.4;;;2.4;;
63690;SDS011;49837;57.280;27.070;2023-07-29T01:16:44;4.1;;;2.5;;
63690;SDS011;49837;57.280;27.070;2023-07-29T01:17:46;5.5;;;2.6;;
63690;SDS011;49837;57.280;27.070;2023-07-29T01:18:47;4.8;;;2.4;;
63690;SDS011;49837;57.280;27.070;2023-07-29T01:20:50;4.4;;;2.2;;
63690;SDS011;49837;57.280;27.070;2023-07-29T01:21:51;4.6;;;2.3;;
63690;SDS011;49837;57.280;27.070;2023-07-29T01:22:51;3.1;;;2.2;;
63690;SDS011;49837;57.280;27.070;2023-07-29T01:23:52;5.0;;;2.1;;
63690;SDS011;49837;57.280;27.070;2023-07-29T01:24:52;6.3;;;2.2;;
63690;SDS011;49837;57.280;27.070;2023-07-29T01:25:52;4.4;;;2.5;;
63690;SDS011;49837;57.280;27.070;2023-07-29T01:26:53;6.2;;;2.4;;
63690;SDS011;49837;57.280;27.070;2023-07-29T01:27:53;4.7;;;2.5;;
63690;SDS011;49837;57.280;27.070;2023-07-29T01:28:54;4.3;;;2.2;;
63690;SDS011;49837;57.280;27.070;2023-07-29T01:29:54;2.7;;;2.3;;
63690;SDS011;49837;57.280;27.070;2023-07-29T01:31:10;3.1;;;2.2;;
63690;SDS011;49837;57.280;27.070;2023-07-29T01:32:01;3.7;;;2.3;;
63690;SDS011;49837;57.280;27.070;2023-07-29T01:33:09;4.2;;;2.5;;
63690;SDS011;49837;57.280;27.070;2023-07-29T01:34:13;7.4;;;2.6;;
63690;SDS011;49837;57.280;27.070;2023-07-29T01:35:13;10.2;;;2.8;;
63690;SDS011;49837;57.280;27.070;2023-07-29T01:36:15;4.6;;;2.4;;
63690;SDS011;49837;57.280;27.070;2023-07-29T01:37:15;6.0;;;2.5;;
63690;SDS011;49837;57.280;27.070;2023-07-29T01:39:17;5.0;;;2.5;;
63690;SDS011;49837;57.280;27.070;2023-07-29T01:40:18;6.2;;;2.4;;
63690;SDS011;49837;57.280;27.070;2023-07-29T01:41:19;4.6;;;2.5;;
63690;SDS011;49837;57.280;27.070;2023-07-29T01:42:19;4.0;;;2.1;;
63690;SDS011;49837;57.280;27.070;2023-07-29T01:43:20;4.9;;;2.5;;
63690;SDS011;49837;57.280;27.070;2023-07-29T01:44:20;5.8;;;2.6;;
63690;SDS011;49837;57.280;27.070;2023-07-29T01:45:24;3.9;;;2.7;;
63690;SDS011;49837;57.280;27.070;2023-07-29T01:46:22;7.5;;;3.3;;
63690;SDS011;49837;57.280;27.070;2023-07-29T01:47:22;4.9;;;2.7;;
63690;SDS011;49837;57.280;27.070;2023-07-29T01:48:23;4.9;;;2.3;;
63690;SDS011;49837;57.280;27.070;2023-07-29T01:49:23;5.6;;;2.7;;
63690;SDS011;49837;57.280;27.070;2023-07-29T01:50:24;5.3;;;2.3;;
63690;SDS011;49837;57.280;27.070;2023-07-29T01:51:24;4.3;;;2.3;;
63690;SDS011;49837;57.280;27.070;2023-07-29T01:52:25;3.9;;;2.3;;
63690;SDS011;49837;57.280;27.070;2023-07-29T01:53:25;7.0;;;2.5;;
63690;SDS011;49837;57.280;27.070;2023-07-29T01:54:26;6.0;;;2.7;;
63690;SDS011;49837;57.280;27.070;2023-07-29T01:55:26;5.6;;;2.6;;
63690;SDS011;49837;57.280;27.070;2023-07-29T01:56:26;4.4;;;2.3;;
63690;SDS011;49837;57.280;27.070;2023-07-29T01:57:27;4.2;;;2.4;;
63690;SDS011;49837;57.280;27.070;2023-07-29T01:58:27;4.7;;;2.6;;
63690;SDS011;49837;57.280;27.070;2023-07-29T01:59:27;5.0;;;2.2;;
63690;SDS011;49837;57.280;27.070;2023-07-29T02:00:28;4.7;;;2.4;;
63690;SDS011;49837;57.280;27.070;2023-07-29T02:01:28;5.1;;;2.4;;
63690;SDS011;49837;57.280;27.070;2023-07-29T02:02:29;3.5;;;2.2;;
63690;SDS011;49837;57.280;27.070;2023-07-29T02:03:29;3.2;;;2.1;;
63690;SDS011;49837;57.280;27.070;2023-07-29T02:04:30;5.2;;;2.4;;
63690;SDS011;49837;57.280;27.070;2023-07-29T02:05:31;3.3;;;2.3;;
63690;SDS011;49837;57.280;27.070;2023-07-29T02:06:31;5.2;;;2.5;;
63690;SDS011;49837;57.280;27.070;2023-07-29T02:07:32;5.1;;;2.0;;
63690;SDS011;49837;57.280;27.070;2023-07-29T02:08:32;4.2;;;2.3;;
63690;SDS011;49837;57.280;27.070;2023-07-29T02:09:32;4.6;;;2.3;;
63690;SDS011;49837;57.280;27.070;2023-07-29T02:10:33;5.7;;;2.2;;
63690;SDS011;49837;57.280;27.070;2023-07-29T02:11:33;3.1;;;2.2;;
63690;SDS011;49837;57.280;27.070;2023-07-29T02:12:34;4.3;;;2.0;;
63690;SDS011;49837;57.280;27.070;2023-07-29T02:13:34;3.6;;;2.3;;
63690;SDS011;49837;57.280;27.070;2023-07-29T02:14:35;4.4;;;2.1;;
63690;SDS011;49837;57.280;27.070;2023-07-29T02:15:36;4.1;;;2.2;;
63690;SDS011;49837;57.280;27.070;2023-07-29T02:16:36;7.2;;;2.3;;
63690;SDS011;49837;57.280;27.070;2023-07-29T02:17:37;4.6;;;2.2;;
63690;SDS011;49837;57.280;27.070;2023-07-29T02:18:37;6.9;;;2.1;;
63690;SDS011;49837;57.280;27.070;2023-07-29T02:19:37;3.3;;;2.2;;
63690;SDS011;49837;57.280;27.070;2023-07-29T02:20:38;4.1;;;2.1;;
63690;SDS011;49837;57.280;27.070;2023-07-29T02:21:38;5.6;;;2.4;;
63690;SDS011;49837;57.280;27.070;2023-07-29T02:22:39;3.3;;;2.2;;
63690;SDS011;49837;57.280;27.070;2023-07-29T02:23:39;3.1;;;2.2;;
63690;SDS011;49837;57.280;27.070;2023-07-29T02:24:40;5.3;;;2.3;;
63690;SDS011;49837;57.280;27.070;2023-07-29T02:25:40;3.6;;;2.3;;
63690;SDS011;49837;57.280;27.070;2023-07-29T02:26:41;5.4;;;2.6;;
63690;SDS011;49837;57.280;27.070;2023-07-29T02:27:41;3.1;;;2.1;;
63690;SDS011;49837;57.280;27.070;2023-07-29T02:28:41;4.4;;;2.3;;
63690;SDS011;49837;57.280;27.070;2023-07-29T02:29:42;5.8;;;2.4;;
63690;SDS011;49837;57.280;27.070;2023-07-29T02:30:42;3.7;;;2.5;;
63690;SDS011;49837;57.280;27.070;2023-07-29T02:31:43;3.0;;;2.2;;
63690;SDS011;49837;57.280;27.070;2023-07-29T02:32:43;5.1;;;2.5;;
63690;SDS011;49837;57.280;27.070;2023-07-29T02:33:43;4.8;;;2.5;;
63690;SDS011;49837;57.280;27.070;2023-07-29T02:34:44;6.2;;;2.5;;
63690;SDS011;49837;57.280;27.070;2023-07-29T02:35:44;4.0;;;2.3;;
63690;SDS011;49837;57.280;27.070;2023-07-29T02:36:45;4.6;;;2.5;;
63690;SDS011;49837;57.280;27.070;2023-07-29T02:37:45;4.9;;;2.3;;
63690;SDS011;49837;57.280;27.070;2023-07-29T02:38:46;4.1;;;2.5;;
63690;SDS011;49837;57.280;27.070;2023-07-29T02:39:46;4.1;;;2.3;;
63690;SDS011;49837;57.280;27.070;2023-07-29T02:40:46;5.7;;;2.6;;
63690;SDS011;49837;57.280;27.070;2023-07-29T02:41:47;5.0;;;2.5;;
63690;SDS011;49837;57.280;27.070;2023-07-29T02:42:47;6.3;;;2.5;;
63690;SDS011;49837;57.280;27.070;2023-07-29T02:43:48;4.3;;;2.3;;
63690;SDS011;49837;57.280;27.070;2023-07-29T02:44:48;4.8;;;2.5;;
63690;SDS011;49837;57.280;27.070;2023-07-29T02:45:49;4.8;;;2.3;;
63690;SDS011;49837;57.280;27.070;2023-07-29T02:46:49;4.7;;;2.4;;
63690;SDS011;49837;57.280;27.070;2023-07-29T02:47:49;5.2;;;2.3;;
63690;SDS011;49837;57.280;27.070;2023-07-29T02:48:50;4.9;;;2.1;;
63690;SDS011;49837;57.280;27.070;2023-07-29T02:49:50;5.6;;;2.3;;
63690;SDS011;49837;57.280;27.070;2023-07-29T02:50:51;2.7;;;2.1;;
63690;SDS011;49837;57.280;27.070;2023-07-29T02:51:51;5.7;;;2.4;;
63690;SDS011;49837;57.280;27.070;2023-07-29T02:52:52;6.2;;;2.3;;
63690;SDS011;49837;57.280;27.070;2023-07-29T02:53:52;4.7;;;2.4;;
63690;SDS011;49837;57.280;27.070;2023-07-29T02:54:53;7.2;;;2.4;;
63690;SDS011;49837;57.280;27.070;2023-07-29T02:55:53;4.3;;;2.1;;
63690;SDS011;49837;57.280;27.070;2023-07-29T02:56:53;6.0;;;2.3;;
63690;SDS011;49837;57.280;27.070;2023-07-29T02:57:54;7.0;;;2.3;;
63690;SDS011;49837;57.280;27.070;2023-07-29T02:58:54;5.5;;;2.5;;
63690;SDS011;49837;57.280;27.070;2023-07-29T02:59:55;3.7;;;2.3;;
63690;SDS011;49837;57.280;27.070;2023-07-29T03:01:01;5.1;;;2.3;;
63690;SDS011;49837;57.280;27.070;2023-07-29T03:02:00;4.2;;;2.3;;
63690;SDS011;49837;57.280;27.070;2023-07-29T03:03:00;4.0;;;2.4;;
63690;SDS011;49837;57.280;27.070;2023-07-29T03:04:01;5.0;;;2.4;;
63690;SDS011;49837;57.280;27.070;2023-07-29T03:05:01;4.0;;;2.3;;
63690;SDS011;49837;57.280;27.070;2023-07-29T03:06:02;5.4;;;2.2;;
63690;SDS011;49837;57.280;27.070;2023-07-29T03:07:02;5.1;;;2.1;;
63690;SDS011;49837;57.280;27.070;2023-07-29T03:08:03;5.7;;;2.5;;
63690;SDS011;49837;57.280;27.070;2023-07-29T03:09:03;4.6;;;2.3;;
63690;SDS011;49837;57.280;27.070;2023-07-29T03:10:03;5.2;;;2.2;;
63690;SDS011;49837;57.280;27.070;2023-07-29T03:11:07;4.4;;;2.5;;
63690;SDS011;49837;57.280;27.070;2023-07-29T03:12:07;5.3;;;2.3;;
63690;SDS011;49837;57.280;27.070;2023-07-29T03:13:07;6.4;;;2.7;;
63690;SDS011;49837;57.280;27.070;2023-07-29T03:14:07;5.1;;;2.4;;
63690;SDS011;49837;57.280;27.070;2023-07-29T03:15:08;4.3;;;2.2;;
63690;SDS011;49837;57.280;27.070;2023-07-29T03:16:12;4.0;;;2.4;;
63690;SDS011;49837;57.280;27.070;2023-07-29T03:17:13;4.7;;;2.5;;
63690;SDS011;49837;57.280;27.070;2023-07-29T03:18:14;5.8;;;2.4;;
63690;SDS011;49837;57.280;27.070;2023-07-29T03:19:14;3.8;;;2.2;;
63690;SDS011;49837;57.280;27.070;2023-07-29T03:20:15;4.0;;;2.2;;
63690;SDS011;49837;57.280;27.070;2023-07-29T03:21:15;3.4;;;2.1;;
63690;SDS011;49837;57.280;27.070;2023-07-29T03:22:15;5.3;;;2.6;;
63690;SDS011;49837;57.280;27.070;2023-07-29T03:23:16;4.5;;;2.3;;
63690;SDS011;49837;57.280;27.070;2023-07-29T03:24:16;5.2;;;2.1;;
63690;SDS011;49837;57.280;27.070;2023-07-29T03:25:17;4.5;;;2.3;;
63690;SDS011;49837;57.280;27.070;2023-07-29T03:26:17;5.2;;;2.5;;
63690;SDS011;49837;57.280;27.070;2023-07-29T03:27:18;4.7;;;2.3;;
63690;SDS011;49837;57.280;27.070;2023-07-29T03:28:18;4.6;;;2.5;;
63690;SDS011;49837;57.280;27.070;2023-07-29T03:29:18;6.8;;;2.4;;
63690;SDS011;49837;57.280;27.070;2023-07-29T03:30:19;4.6;;;2.3;;
63690;SDS011;49837;57.280;27.070;2023-07-29T03:31:20;4.7;;;2.3;;
63690;SDS011;49837;57.280;27.070;2023-07-29T03:32:20;3.1;;;2.1;;
63690;SDS011;49837;57.280;27.070;2023-07-29T03:33:21;6.8;;;2.5;;
63690;SDS011;49837;57.280;27.070;2023-07-29T03:34:21;4.1;;;2.4;;
63690;SDS011;49837;57.280;27.070;2023-07-29T03:35:22;4.0;;;2.4;;
63690;SDS011;49837;57.280;27.070;2023-07-29T03:36:22;4.4;;;2.8;;
63690;SDS011;49837;57.280;27.070;2023-07-29T03:37:23;3.8;;;2.2;;
63690;SDS011;49837;57.280;27.070;2023-07-29T03:38:24;4.2;;;2.3;;
63690;SDS011;49837;57.280;27.070;2023-07-29T03:39:24;6.6;;;2.5;;
63690;SDS011;49837;57.280;27.070;2023-07-29T03:40:24;4.6;;;2.3;;
63690;SDS011;49837;57.280;27.070;2023-07-29T03:41:25;4.8;;;2.4;;
63690;SDS011;49837;57.280;27.070;2023-07-29T03:42:25;3.6;;;2.1;;
63690;SDS011;49837;57.280;27.070;2023-07-29T03:43:26;4.9;;;2.4;;
63690;SDS011;49837;57.280;27.070;2023-07-29T03:44:26;5.8;;;2.4;;
63690;SDS011;49837;57.280;27.070;2023-07-29T03:45:27;4.3;;;2.5;;
63690;SDS011;49837;57.280;27.070;2023-07-29T03:46:27;6.0;;;2.4;;
63690;SDS011;49837;57.280;27.070;2023-07-29T03:47:28;3.8;;;2.2;;
63690;SDS011;49837;57.280;27.070;2023-07-29T03:48:28;8.1;;;2.6;;
63690;SDS011;49837;57.280;27.070;2023-07-29T03:49:28;14.6;;;2.8;;
63690;SDS011;49837;57.280;27.070;2023-07-29T03:50:29;15.3;;;3.0;;
63690;SDS011;49837;57.280;27.070;2023-07-29T03:51:29;10.7;;;3.0;;
63690;SDS011;49837;57.280;27.070;2023-07-29T03:52:30;11.4;;;2.6;;
63690;SDS011;49837;57.280;27.070;2023-07-29T03:53:30;7.0;;;2.4;;
63690;SDS011;49837;57.280;27.070;2023-07-29T03:54:31;11.6;;;2.6;;
63690;SDS011;49837;57.280;27.070;2023-07-29T03:55:32;5.1;;;2.5;;
63690;SDS011;49837;57.280;27.070;2023-07-29T03:56:31;4.6;;;2.3;;
63690;SDS011;49837;57.280;27.070;2023-07-29T03:57:32;5.7;;;2.2;;
63690;SDS011;49837;57.280;27.070;2023-07-29T03:58:32;6.6;;;2.4;;
63690;SDS011;49837;57.280;27.070;2023-07-29T03:59:33;4.2;;;2.2;;
63690;SDS011;49837;57.280;27.070;2023-07-29T04:00:33;4.6;;;2.5;;
63690;SDS011;49837;57.280;27.070;2023-07-29T04:01:34;5.2;;;2.5;;
63690;SDS011;49837;57.280;27.070;2023-07-29T04:02:34;3.7;;;2.1;;
63690;SDS011;49837;57.280;27.070;2023-07-29T04:03:35;7.3;;;2.7;;
63690;SDS011;49837;57.280;27.070;2023-07-29T04:04:35;6.3;;;2.4;;
63690;SDS011;49837;57.280;27.070;2023-07-29T04:05:35;4.5;;;2.4;;
63690;SDS011;49837;57.280;27.070;2023-07-29T04:06:36;4.5;;;2.5;;
63690;SDS011;49837;57.280;27.070;2023-07-29T04:07:36;6.3;;;2.7;;
63690;SDS011;49837;57.280;27.070;2023-07-29T04:08:37;8.1;;;2.4;;
63690;SDS011;49837;57.280;27.070;2023-07-29T04:09:37;7.3;;;2.5;;
63690;SDS011;49837;57.280;27.070;2023-07-29T04:10:38;7.3;;;2.4;;
63690;SDS011;49837;57.280;27.070;2023-07-29T04:11:38;5.7;;;2.4;;
63690;SDS011;49837;57.280;27.070;2023-07-29T04:12:38;6.7;;;2.6;;
63690;SDS011;49837;57.280;27.070;2023-07-29T04:13:39;5.2;;;2.3;;
63690;SDS011;49837;57.280;27.070;2023-07-29T04:14:39;5.7;;;2.2;;
63690;SDS011;49837;57.280;27.070;2023-07-29T04:15:40;4.2;;;2.2;;
63690;SDS011;49837;57.280;27.070;2023-07-29T04:16:40;5.1;;;2.4;;
63690;SDS011;49837;57.280;27.070;2023-07-29T04:17:41;3.5;;;2.2;;
63690;SDS011;49837;57.280;27.070;2023-07-29T04:18:41;6.0;;;2.9;;
63690;SDS011;49837;57.280;27.070;2023-07-29T04:19:42;4.8;;;2.1;;
63690;SDS011;49837;57.280;27.070;2023-07-29T04:20:42;5.6;;;2.4;;
63690;SDS011;49837;57.280;27.070;2023-07-29T04:21:42;5.6;;;2.3;;
63690;SDS011;49837;57.280;27.070;2023-07-29T04:22:43;4.8;;;2.1;;
63690;SDS011;49837;57.280;27.070;2023-07-29T04:23:43;3.9;;;2.2;;
63690;SDS011;49837;57.280;27.070;2023-07-29T04:24:44;4.2;;;2.1;;
63690;SDS011;49837;57.280;27.070;2023-07-29T04:25:45;4.2;;;2.2;;
63690;SDS011;49837;57.280;27.070;2023-07-29T04:26:45;4.5;;;2.4;;
63690;SDS011;49837;57.280;27.070;2023-07-29T04:27:46;3.6;;;2.4;;
63690;SDS011;49837;57.280;27.070;2023-07-29T04:28:46;5.0;;;2.4;;
63690;SDS011;49837;57.280;27.070;2023-07-29T04:29:47;4.2;;;2.2;;
63690;SDS011;49837;57.280;27.070;2023-07-29T04:30:47;6.2;;;2.3;;
63690;SDS011;49837;57.280;27.070;2023-07-29T04:31:47;3.5;;;2.4;;
63690;SDS011;49837;57.280;27.070;2023-07-29T04:32:48;4.0;;;2.3;;
63690;SDS011;49837;57.280;27.070;2023-07-29T04:33:48;4.8;;;2.2;;
63690;SDS011;49837;57.280;27.070;2023-07-29T04:34:49;3.7;;;2.1;;
63690;SDS011;49837;57.280;27.070;2023-07-29T04:35:49;4.6;;;2.4;;
63690;SDS011;49837;57.280;27.070;2023-07-29T04:36:50;5.9;;;2.1;;
63690;SDS011;49837;57.280;27.070;2023-07-29T04:37:50;3.4;;;2.2;;
63690;SDS011;49837;57.280;27.070;2023-07-29T04:38:51;3.4;;;2.4;;
63690;SDS011;49837;57.280;27.070;2023-07-29T04:39:51;3.5;;;2.2;;
63690;SDS011;49837;57.280;27.070;2023-07-29T04:40:51;5.4;;;2.5;;
63690;SDS011;49837;57.280;27.070;2023-07-29T04:41:52;4.5;;;2.1;;
63690;SDS011;49837;57.280;27.070;2023-07-29T04:42:52;7.5;;;2.1;;
63690;SDS011;49837;57.280;27.070;2023-07-29T04:43:53;3.4;;;2.2;;
63690;SDS011;49837;57.280;27.070;2023-07-29T04:44:53;5.8;;;2.2;;
63690;SDS011;49837;57.280;27.070;2023-07-29T04:45:54;4.9;;;2.3;;
63690;SDS011;49837;57.280;27.070;2023-07-29T04:46:54;3.4;;;1.9;;
63690;SDS011;49837;57.280;27.070;2023-07-29T04:47:55;5.1;;;2.3;;
63690;SDS011;49837;57.280;27.070;2023-07-29T04:48:55;4.4;;;2.4;;
63690;SDS011;49837;57.280;27.070;2023-07-29T04:49:55;4.7;;;2.3;;
63690;SDS011;49837;57.280;27.070;2023-07-29T04:50:56;6.2;;;2.3;;
63690;SDS011;49837;57.280;27.070;2023-07-29T04:51:56;3.9;;;2.3;;
63690;SDS011;49837;57.280;27.070;2023-07-29T04:52:57;3.6;;;2.4;;
63690;SDS011;49837;57.280;27.070;2023-07-29T04:53:57;5.6;;;2.4;;
63690;SDS011;49837;57.280;27.070;2023-07-29T04:54:58;3.4;;;2.2;;
63690;SDS011;49837;57.280;27.070;2023-07-29T04:55:59;3.8;;;2.2;;
63690;SDS011;49837;57.280;27.070;2023-07-29T04:56:58;4.1;;;2.5;;
63690;SDS011;49837;57.280;27.070;2023-07-29T04:57:59;3.9;;;2.1;;
63690;SDS011;49837;57.280;27.070;2023-07-29T04:58:59;5.1;;;2.6;;
63690;SDS011;49837;57.280;27.070;2023-07-29T05:00:00;5.1;;;2.5;;
63690;SDS011;49837;57.280;27.070;2023-07-29T05:01:03;3.2;;;2.1;;
63690;SDS011;49837;57.280;27.070;2023-07-29T05:02:01;4.0;;;2.6;;
63690;SDS011;49837;57.280;27.070;2023-07-29T05:03:02;3.7;;;2.3;;
63690;SDS011;49837;57.280;27.070;2023-07-29T05:04:02;4.3;;;2.5;;
63690;SDS011;49837;57.280;27.070;2023-07-29T05:05:03;3.6;;;2.5;;
63690;SDS011;49837;57.280;27.070;2023-07-29T05:06:03;4.2;;;2.4;;
63690;SDS011;49837;57.280;27.070;2023-07-29T05:07:04;4.3;;;2.3;;
63690;SDS011;49837;57.280;27.070;2023-07-29T05:08:04;3.3;;;2.0;;
63690;SDS011;49837;57.280;27.070;2023-07-29T05:09:18;6.7;;;2.6;;
63690;SDS011;49837;57.280;27.070;2023-07-29T05:10:06;3.8;;;2.5;;
63690;SDS011;49837;57.280;27.070;2023-07-29T05:11:07;4.2;;;2.3;;
63690;SDS011;49837;57.280;27.070;2023-07-29T05:12:08;8.2;;;3.0;;
63690;SDS011;49837;57.280;27.070;2023-07-29T05:13:08;9.6;;;3.0;;
63690;SDS011;49837;57.280;27.070;2023-07-29T05:14:08;4.7;;;2.7;;
63690;SDS011;49837;57.280;27.070;2023-07-29T05:15:09;6.5;;;2.4;;
63690;SDS011;49837;57.280;27.070;2023-07-29T05:16:09;4.8;;;2.6;;
63690;SDS011;49837;57.280;27.070;2023-07-29T05:17:09;4.4;;;2.5;;
63690;SDS011;49837;57.280;27.070;2023-07-29T05:18:10;5.5;;;2.4;;
63690;SDS011;49837;57.280;27.070;2023-07-29T05:19:10;6.6;;;2.8;;
63690;SDS011;49837;57.280;27.070;2023-07-29T05:20:11;7.3;;;2.7;;
63690;SDS011;49837;57.280;27.070;2023-07-29T05:21:11;6.8;;;2.7;;
63690;SDS011;49837;57.280;27.070;2023-07-29T05:22:12;5.1;;;2.8;;
63690;SDS011;49837;57.280;27.070;2023-07-29T05:23:12;7.8;;;3.1;;
63690;SDS011;49837;57.280;27.070;2023-07-29T05:24:12;4.5;;;2.6;;
63690;SDS011;49837;57.280;27.070;2023-07-29T05:25:13;4.7;;;2.9;;
63690;SDS011;49837;57.280;27.070;2023-07-29T05:26:13;6.6;;;3.2;;
63690;SDS011;49837;57.280;27.070;2023-07-29T05:27:14;7.6;;;4.0;;
63690;SDS011;49837;57.280;27.070;2023-07-29T05:28:14;7.9;;;3.2;;
63690;SDS011;49837;57.280;27.070;2023-07-29T05:29:15;4.6;;;2.8;;
63690;SDS011;49837;57.280;27.070;2023-07-29T05:30:15;4.6;;;2.8;;
63690;SDS011;49837;57.280;27.070;2023-07-29T05:31:15;7.0;;;2.9;;
63690;SDS011;49837;57.280;27.070;2023-07-29T05:32:16;6.9;;;2.7;;
63690;SDS011;49837;57.280;27.070;2023-07-29T05:33:16;6.8;;;3.0;;
63690;SDS011;49837;57.280;27.070;2023-07-29T05:34:17;6.4;;;2.9;;
63690;SDS011;49837;57.280;27.070;2023-07-29T05:35:17;6.4;;;3.1;;
63690;SDS011;49837;57.280;27.070;2023-07-29T05:36:18;6.4;;;3.0;;
63690;SDS011;49837;57.280;27.070;2023-07-29T05:37:18;5.1;;;2.8;;
63690;SDS011;49837;57.280;27.070;2023-07-29T05:38:19;4.9;;;3.0;;
63690;SDS011;49837;57.280;27.070;2023-07-29T05:39:19;4.3;;;2.8;;
63690;SDS011;49837;57.280;27.070;2023-07-29T05:40:19;6.0;;;2.9;;
63690;SDS011;49837;57.280;27.070;2023-07-29T05:41:20;5.2;;;2.9;;
63690;SDS011;49837;57.280;27.070;2023-07-29T05:42:20;9.8;;;3.2;;
63690;SDS011;49837;57.280;27.070;2023-07-29T05:43:21;6.7;;;3.2;;
63690;SDS011;49837;57.280;27.070;2023-07-29T05:44:21;7.0;;;3.5;;
63690;SDS011;49837;57.280;27.070;2023-07-29T05:45:22;6.3;;;2.7;;
63690;SDS011;49837;57.280;27.070;2023-07-29T05:46:22;5.3;;;3.2;;
63690;SDS011;49837;57.280;27.070;2023-07-29T05:47:23;7.3;;;3.1;;
63690;SDS011;49837;57.280;27.070;2023-07-29T05:48:23;9.6;;;3.4;;
63690;SDS011;49837;57.280;27.070;2023-07-29T05:49:24;8.2;;;3.2;;
63690;SDS011;49837;57.280;27.070;2023-07-29T05:50:24;6.7;;;3.2;;
63690;SDS011;49837;57.280;27.070;2023-07-29T05:51:24;7.2;;;3.3;;
63690;SDS011;49837;57.280;27.070;2023-07-29T05:52:25;6.3;;;3.4;;
63690;SDS011;49837;57.280;27.070;2023-07-29T05:53:25;8.0;;;3.2;;
63690;SDS011;49837;57.280;27.070;2023-07-29T05:54:26;6.2;;;3.5;;
63690;SDS011;49837;57.280;27.070;2023-07-29T05:55:26;7.2;;;3.7;;
63690;SDS011;49837;57.280;27.070;2023-07-29T05:56:27;7.1;;;3.2;;
63690;SDS011;49837;57.280;27.070;2023-07-29T05:57:27;5.7;;;3.0;;
63690;SDS011;49837;57.280;27.070;2023-07-29T05:58:27;5.3;;;3.1;;
63690;SDS011;49837;57.280;27.070;2023-07-29T05:59:28;7.0;;;3.2;;
63690;SDS011;49837;57.280;27.070;2023-07-29T06:00:28;6.5;;;3.0;;
63690;SDS011;49837;57.280;27.070;2023-07-29T06:01:29;7.4;;;3.2;;
63690;SDS011;49837;57.280;27.070;2023-07-29T06:02:29;7.4;;;3.0;;
63690;SDS011;49837;57.280;27.070;2023-07-29T06:03:30;6.8;;;3.2;;
63690;SDS011;49837;57.280;27.070;2023-07-29T06:04:30;7.2;;;3.4;;
63690;SDS011;49837;57.280;27.070;2023-07-29T06:05:30;6.3;;;3.0;;
63690;SDS011;49837;57.280;27.070;2023-07-29T06:06:31;6.2;;;2.9;;
63690;SDS011;49837;57.280;27.070;2023-07-29T06:07:31;6.2;;;3.1;;
63690;SDS011;49837;57.280;27.070;2023-07-29T06:08:32;7.2;;;3.0;;
63690;SDS011;49837;57.280;27.070;2023-07-29T06:09:32;5.9;;;2.8;;
63690;SDS011;49837;57.280;27.070;2023-07-29T06:10:33;7.4;;;3.2;;
63690;SDS011;49837;57.280;27.070;2023-07-29T06:11:33;5.5;;;3.1;;
63690;SDS011;49837;57.280;27.070;2023-07-29T06:12:34;7.8;;;3.2;;
63690;SDS011;49837;57.280;27.070;2023-07-29T06:13:34;6.9;;;2.6;;